Time;durP1;ratioP1;P1;durP2;ratioP2;P2;SDS_P1;SDS_P2;PMS_P1;PMS_P2;Temp;Humidity;BMP_temperature;BMP_pressure;BME280_temperature;BME280_humidity;BME280_pressure;Samples;Min_cycle;Max_cycle;Signal;HPM_P1;HPM_P2
2022/09/15 00:03:11;;;;;;;5.00;3.72;;;;;;;12.58;100.00;95613.38;10349240;28;20280;-73
2022/09/15 00:08:14;;;;;;;3.80;3.47;;;;;;;12.53;100.00;95605.28;10367326;28;20193;-73
2022/09/15 00:13:15;;;;;;;5.03;4.00;;;;;;;12.53;100.00;95599.25;10366321;28;20217;-74
2022/09/15 00:18:16;;;;;;;4.65;3.80;;;;;;;12.54;100.00;95598.22;10366896;28;20299;-73
2022/09/15 00:23:17;;;;;;;4.13;3.72;;;;;;;12.54;100.00;95596.41;10366465;28;20236;-74
2022/09/15 00:28:19;;;;;;;4.60;4.07;;;;;;;12.53;100.00;95596.59;10367110;28;20190;-73
2022/09/15 00:33:21;;;;;;;4.70;4.28;;;;;;;12.52;100.00;95605.47;10366104;28;20189;-73
2022/09/15 00:38:21;;;;;;;4.57;4.18;;;;;;;12.51;100.00;95609.09;10350493;28;20312;-74
2022/09/15 00:43:45;;;;;;;5.25;4.30;;;;;;;12.51;100.00;95609.94;10329661;28;20198;-73
2022/09/15 00:48:50;;;;;;;12.18;4.63;;;;;;;12.45;100.00;95601.00;10323586;28;20626;-74
2022/09/15 00:53:51;;;;;;;5.13;4.05;;;;;;;12.48;100.00;95599.78;10315495;28;20198;-74
2022/09/15 00:59:09;;;;;;;6.35;4.50;;;;;;;12.52;100.00;95613.38;10322794;28;20775;-73
2022/09/15 01:04:09;;;;;;;5.03;4.47;;;;;;;12.57;100.00;95597.81;10314415;28;20576;-73
2022/09/15 01:09:35;;;;;;;6.05;5.13;;;;;;;12.28;100.00;95583.94;10332601;28;20197;-72
2022/09/15 01:14:36;;;;;;;5.40;4.70;;;;;;;12.47;100.00;95583.22;10330918;28;20260;-73
2022/09/15 01:20:02;;;;;;;4.90;4.40;;;;;;;12.44;100.00;95570.50;10332039;28;20241;-73
2022/09/15 01:25:11;;;;;;;4.55;4.15;;;;;;;12.41;100.00;95573.50;10309119;28;20209;-72
2022/09/15 01:30:14;;;;;;;3.80;3.40;;;;;;;12.51;100.00;95577.59;10331421;28;20201;-73
2022/09/15 01:35:20;;;;;;;6.13;4.03;;;;;;;12.44;100.00;95567.88;10331215;28;20584;-73
2022/09/15 01:40:23;;;;;;;6.68;5.22;;;;;;;12.49;100.00;95575.97;10330957;28;20724;-74
2022/09/15 01:45:28;;;;;;;7.50;5.80;;;;;;;12.49;100.00;95570.69;10331348;28;20557;-73
2022/09/15 01:50:32;;;;;;;6.38;5.72;;;;;;;12.52;100.00;95559.00;10328774;28;20243;-74
2022/09/15 01:55:39;;;;;;;11.02;7.32;;;;;;;12.39;100.00;95551.91;10348128;28;20197;-73
2022/09/15 02:00:47;;;;;;;9.70;7.22;;;;;;;12.38;100.00;95547.63;10332377;28;20226;-73
2022/09/15 02:05:53;;;;;;;13.13;8.48;;;;;;;12.41;100.00;95562.22;10313165;28;20630;-74
2022/09/15 02:11:00;;;;;;;14.77;9.52;;;;;;;12.43;100.00;95571.50;10328484;28;20187;-74
2022/09/15 02:16:01;;;;;;;10.32;7.03;;;;;;;12.34;100.00;95592.88;10330015;28;20194;-73
2022/09/15 02:21:08;;;;;;;13.57;8.85;;;;;;;12.36;100.00;95590.84;10329622;28;20694;-73
2022/09/15 02:26:13;;;;;;;18.58;9.98;;;;;;;12.44;100.00;95583.63;10322750;28;20237;-73
2022/09/15 02:31:15;;;;;;;17.48;9.50;;;;;;;12.38;100.00;95573.91;10325638;28;20241;-73
2022/09/15 02:36:18;;;;;;;19.95;10.68;;;;;;;12.44;100.00;95577.56;10327602;28;20729;-73
2022/09/15 02:41:19;;;;;;;19.30;10.88;;;;;;;12.48;100.00;95592.75;10328130;28;20276;-73
2022/09/15 02:46:21;;;;;;;24.70;13.57;;;;;;;12.45;100.00;95590.50;10326219;28;20256;-73
2022/09/15 02:51:21;;;;;;;30.48;15.60;;;;;;;12.35;100.00;95597.94;10326730;28;20790;-73
2022/09/15 02:56:22;;;;;;;24.27;14.07;;;;;;;12.37;100.00;95598.53;10326222;28;20226;-73
2022/09/15 03:01:31;;;;;;;18.77;11.43;;;;;;;12.39;100.00;95590.47;10327010;28;20232;-73
2022/09/15 03:06:34;;;;;;;29.65;12.57;;;;;;;12.37;100.00;95595.09;10361306;28;20205;-73
2022/09/15 03:11:35;;;;;;;23.58;12.80;;;;;;;12.33;100.00;95597.31;10360000;28;20193;-73
2022/09/15 03:16:35;;;;;;;24.70;13.07;;;;;;;12.21;100.00;95594.44;10361636;28;20200;-73
2022/09/15 03:21:36;;;;;;;35.22;13.85;;;;;;;12.18;100.00;95586.16;10360547;28;20251;-73
2022/09/15 03:26:36;;;;;;;20.77;12.93;;;;;;;12.19;100.00;95590.38;10361051;28;20244;-73
2022/09/15 03:31:37;;;;;;;23.02;13.35;;;;;;;12.16;100.00;95588.97;10360860;28;20296;-74
2022/09/15 03:36:37;;;;;;;25.65;14.98;;;;;;;12.16;100.00;95599.47;10360683;28;20205;-74
2022/09/15 03:41:38;;;;;;;22.52;12.45;;;;;;;12.21;100.00;95594.44;10360365;28;20315;-73
2022/09/15 03:46:38;;;;;;;25.67;11.90;;;;;;;12.26;100.00;95589.41;10359938;28;20197;-73
2022/09/15 03:51:38;;;;;;;23.70;12.07;;;;;;;12.19;100.00;95593.81;10361059;28;20276;-73
2022/09/15 03:56:39;;;;;;;25.42;11.75;;;;;;;12.17;100.00;95597.63;10360414;28;20249;-73
2022/09/15 04:01:39;;;;;;;28.13;11.98;;;;;;;12.16;100.00;95596.00;10361036;28;20225;-73
2022/09/15 04:06:40;;;;;;;30.38;12.48;;;;;;;12.22;100.00;95595.22;10367297;28;20252;-74
2022/09/15 04:11:41;;;;;;;25.40;11.55;;;;;;;12.16;100.00;95596.00;10366607;28;20272;-73
2022/09/15 04:16:41;;;;;;;23.40;11.80;;;;;;;12.15;100.00;95603.09;10368749;28;20192;-73
2022/09/15 04:21:42;;;;;;;21.75;9.75;;;;;;;12.20;100.00;95613.00;10374418;28;20217;-73
2022/09/15 04:26:43;;;;;;;16.38;8.20;;;;;;;12.18;100.00;95617.66;10374876;28;20672;-74
2022/09/15 04:31:44;;;;;;;17.60;8.18;;;;;;;12.19;100.00;95614.00;10374319;28;20189;-74
2022/09/15 04:36:45;;;;;;;16.25;8.85;;;;;;;12.16;100.00;95609.97;10356540;28;20602;-74
2022/09/15 04:41:45;;;;;;;21.70;11.15;;;;;;;12.01;100.00;95612.69;10374109;28;20720;-73
2022/09/15 04:46:46;;;;;;;24.52;11.07;;;;;;;11.86;100.00;95615.38;10373844;28;20280;-74
2022/09/15 04:51:46;;;;;;;20.23;11.02;;;;;;;11.80;100.00;95621.41;10373613;28;20200;-74
2022/09/15 04:56:47;;;;;;;28.58;12.40;;;;;;;11.76;100.00;95628.84;10339972;28;20198;-74
2022/09/15 05:01:48;;;;;;;38.50;14.57;;;;;;;11.66;100.00;95630.19;10372659;28;20712;-73
2022/09/15 05:06:48;;;;;;;55.10;16.30;;;;;;;11.61;100.00;95636.00;10373294;28;20247;-73
2022/09/15 05:11:48;;;;;;;41.95;16.63;;;;;;;11.61;100.00;95641.25;10372979;28;20181;-73
2022/09/15 05:16:49;;;;;;;38.45;14.73;;;;;;;11.61;100.00;95638.63;10372799;28;20271;-73
2022/09/15 05:21:49;;;;;;;52.78;14.68;;;;;;;11.56;100.00;95639.19;10372455;28;20223;-73
2022/09/15 05:26:49;;;;;;;52.88;18.00;;;;;;;11.59;100.00;95638.00;10372311;28;20658;-73
2022/09/15 05:31:50;;;;;;;51.25;16.15;;;;;;;11.61;100.00;95643.88;10371912;28;20772;-73
2022/09/15 05:36:50;;;;;;;39.97;13.98;;;;;;;11.70;100.00;95653.22;10371438;28;20685;-73
2022/09/15 05:41:50;;;;;;;41.28;16.30;;;;;;;11.82;100.00;95644.84;10371681;28;20236;-74
2022/09/15 05:46:51;;;;;;;46.80;18.17;;;;;;;11.83;100.00;95633.34;10371405;28;20200;-74
2022/09/15 05:51:51;;;;;;;48.17;16.17;;;;;;;11.84;100.00;95629.69;10371331;28;20196;-73
2022/09/15 05:56:52;;;;;;;47.47;15.35;;;;;;;11.92;100.00;95635.66;10371396;28;20193;-73
2022/09/15 06:01:52;;;;;;;39.03;15.57;;;;;;;11.92;100.00;95629.56;10370367;28;20289;-73
2022/09/15 06:06:52;;;;;;;36.50;13.05;;;;;;;11.71;100.00;95636.47;10371108;28;20280;-73
2022/09/15 06:11:53;;;;;;;35.60;13.52;;;;;;;11.74;100.00;95646.59;10375456;28;20285;-72
2022/09/15 06:16:53;;;;;;;27.48;10.48;;;;;;;11.65;100.00;95639.84;10370616;28;20194;-73
2022/09/15 06:21:54;;;;;;;16.52;7.78;;;;;;;11.55;100.00;95629.69;10369923;28;20606;-73
2022/09/15 06:26:54;;;;;;;30.85;10.38;;;;;;;11.55;100.00;95626.28;10370251;28;20189;-73
2022/09/15 06:31:55;;;;;;;22.98;8.73;;;;;;;11.53;100.00;95618.59;10369866;28;20177;-74
2022/09/15 06:36:56;;;;;;;26.15;10.00;;;;;;;11.74;100.00;95612.47;10369498;28;20236;-73
2022/09/15 06:41:56;;;;;;;24.27;9.43;;;;;;;11.66;100.00;95601.34;10360719;28;20232;-74
2022/09/15 06:46:59;;;;;;;21.85;11.18;;;;;;;11.63;100.00;95592.03;10351648;28;20197;-74
2022/09/15 06:52:01;;;;;;;29.58;11.38;;;;;;;11.51;100.00;95585.69;10368673;28;20190;-73
2022/09/15 06:57:02;;;;;;;25.65;10.60;;;;;;;11.59;100.00;95596.84;10369426;28;20201;-73
2022/09/15 07:02:02;;;;;;;22.52;11.52;;;;;;;11.75;100.00;95589.69;10368240;28;20233;-73
2022/09/15 07:07:03;;;;;;;25.20;11.63;;;;;;;11.87;100.00;95585.53;10368724;28;20600;-73
2022/09/15 07:12:03;;;;;;;23.45;10.82;;;;;;;12.13;100.00;95574.41;10368191;28;20579;-74
2022/09/15 07:17:04;;;;;;;18.77;9.60;;;;;;;12.39;100.00;95566.81;10365949;28;20310;-73
2022/09/15 07:22:04;;;;;;;24.45;10.15;;;;;;;12.52;100.00;95566.09;10340759;28;20232;-73
2022/09/15 07:27:05;;;;;;;18.17;8.35;;;;;;;12.60;100.00;95571.16;10325066;28;20189;-73
2022/09/15 07:32:05;;;;;;;20.48;8.75;;;;;;;12.65;100.00;95564.31;10326322;28;20198;-74
2022/09/15 07:37:06;;;;;;;26.23;10.68;;;;;;;12.60;100.00;95571.97;10327138;28;20220;-74
2022/09/15 07:42:06;;;;;;;16.55;8.13;;;;;;;12.64;100.00;95567.13;10339287;28;20223;-74
2022/09/15 07:47:07;;;;;;;18.77;9.15;;;;;;;12.34;100.00;95559.53;10356067;28;20716;-75
2022/09/15 07:52:07;;;;;;;21.38;9.73;;;;;;;12.44;100.00;95567.88;10367530;28;20185;-74
2022/09/15 07:57:08;;;;;;;17.48;9.27;;;;;;;12.65;100.00;95563.50;10374682;28;20189;-74
2022/09/15 08:02:18;;;;;;;26.02;11.38;;;;;;;13.07;100.00;95564.19;10375221;28;20324;-74
2022/09/15 08:07:19;;;;;;;19.08;10.95;;;;;;;12.71;100.00;95572.41;10375718;28;20197;-74
2022/09/15 08:12:19;;;;;;;21.83;12.30;;;;;;;12.72;100.00;95574.81;10375109;28;20264;-74
2022/09/15 08:17:19;;;;;;;23.48;13.10;;;;;;;13.36;100.00;95578.00;10374918;28;20201;-74
2022/09/15 08:22:20;;;;;;;24.27;11.20;;;;;;;13.96;100.00;95569.25;10374567;28;20244;-74
2022/09/15 08:27:20;;;;;;;17.65;9.93;;;;;;;14.38;100.00;95553.91;10374600;28;20185;-74
2022/09/15 08:32:20;;;;;;;14.13;8.35;;;;;;;14.72;100.00;95539.59;10374455;28;20228;-74
2022/09/15 08:37:21;;;;;;;15.25;8.10;;;;;;;14.44;100.00;95539.91;10374311;28;20296;-73
2022/09/15 08:42:23;;;;;;;14.75;7.05;;;;;;;14.14;100.00;95558.06;10373608;28;20240;-73
2022/09/15 08:47:28;;;;;;;15.30;7.47;;;;;;;13.50;100.00;95566.44;10374306;28;20292;-74
2022/09/15 08:52:34;;;;;;;15.52;6.93;;;;;;;13.48;100.00;95571.13;10373387;28;20188;-74
2022/09/15 08:57:34;;;;;;;13.25;5.88;;;;;;;13.61;100.00;95582.66;10356092;28;20185;-73
2022/09/15 09:03:01;;;;;;;22.73;7.93;;;;;;;14.12;100.00;95568.81;10372814;28;20241;-73
2022/09/15 09:08:30;;;;;;;13.07;6.50;;;;;;;14.23;100.00;95564.72;10372776;28;20193;-73
2022/09/15 09:13:55;;;;;;;14.02;6.30;;;;;;;14.22;100.00;95558.63;10352992;28;20569;-73
2022/09/15 09:19:09;;;;;;;18.05;6.95;;;;;;;14.55;100.00;95549.00;10355333;28;20221;-73
2022/09/15 09:24:25;;;;;;;16.35;7.45;;;;;;;14.79;100.00;95544.81;10372361;28;20236;-73
2022/09/15 09:29:33;;;;;;;11.95;7.13;;;;;;;14.92;100.00;95555.28;10355067;28;20192;-73
2022/09/15 09:34:46;;;;;;;16.55;8.77;;;;;;;15.00;100.00;95562.16;10354094;28;20220;-73
2022/09/15 09:39:47;;;;;;;22.23;9.13;;;;;;;15.24;100.00;95554.50;10371815;28;20248;-73
2022/09/15 09:44:48;;;;;;;17.63;10.27;;;;;;;15.44;100.00;95544.56;10371633;28;20572;-73
2022/09/15 09:49:48;;;;;;;17.67;10.63;;;;;;;15.51;100.00;95541.88;10338038;28;20297;-73
2022/09/15 09:54:59;;;;;;;18.60;10.60;;;;;;;15.39;100.00;95544.44;10371133;28;20189;-73
2022/09/15 09:59:59;;;;;;;15.35;9.85;;;;;;;15.14;100.00;95531.22;10370965;28;20236;-73
2022/09/15 10:05:04;;;;;;;17.85;9.75;;;;;;;15.26;100.00;95536.59;10370901;28;20193;-73
2022/09/15 10:10:05;;;;;;;15.38;8.43;;;;;;;15.33;100.00;95527.63;10370441;28;20196;-73
2022/09/15 10:15:18;;;;;;;11.98;7.93;;;;;;;15.50;100.00;95533.16;10369827;28;20212;-73
2022/09/15 10:20:34;;;;;;;16.95;8.52;;;;;;;15.54;100.00;95538.78;10370172;28;20301;-72
2022/09/15 10:25:36;;;;;;;16.35;6.78;;;;;;;15.72;100.00;95516.13;10370493;28;20247;-73
2022/09/15 10:30:37;;;;;;;10.38;6.50;;;;;;;15.38;100.00;95532.25;10352155;28;20190;-72
2022/09/15 10:35:40;;;;;;;11.82;4.70;;;;;;;14.96;100.00;95534.56;10352254;28;20673;-72
2022/09/15 10:40:51;;;;;;;8.20;4.70;;;;;;;14.75;100.00;95549.72;10352051;28;20252;-72
2022/09/15 10:46:04;;;;;;;6.30;3.30;;;;;;;14.48;100.00;95537.66;10336211;28;20181;-73
2022/09/15 10:51:14;;;;;;;5.88;3.13;;;;;;;14.67;100.00;95534.16;10369423;28;20600;-72
2022/09/15 10:56:36;;;;;;;13.07;3.60;;;;;;;14.83;100.00;95546.03;10369111;28;20469;-73
2022/09/15 11:01:46;;;;;;;6.93;3.33;;;;;;;15.05;100.00;95532.50;10350854;28;20596;-72
2022/09/15 11:06:57;;;;;;;10.05;4.00;;;;;;;14.98;100.00;95530.72;10368808;28;20220;-72
2022/09/15 11:12:26;;;;;;;9.23;3.72;;;;;;;15.24;100.00;95539.47;10368406;28;20197;-72
2022/09/15 11:17:57;;;;;;;9.82;3.03;;;;;;;15.14;100.00;95539.13;10351285;28;20711;-71
2022/09/15 11:23:05;;;;;;;7.75;2.72;;;;;;;15.11;100.00;95529.81;10368225;28;20197;-72
2022/09/15 11:28:15;;;;;;;5.75;3.20;;;;;;;14.61;100.00;95537.63;10368363;28;20699;-72
2022/09/15 11:33:19;;;;;;;10.75;3.78;;;;;;;15.03;100.00;95543.25;10367264;28;20689;-72
2022/09/15 11:38:41;;;;;;;9.85;4.65;;;;;;;15.33;100.00;95547.94;10350323;28;20260;-72
2022/09/15 11:43:57;;;;;;;13.57;4.65;;;;;;;14.69;100.00;95542.66;10349991;28;20203;-72
2022/09/15 11:49:10;;;;;;;12.15;6.38;;;;;;;14.82;100.00;95536.50;10367962;28;20676;-72
2022/09/15 11:54:27;;;;;;;11.07;6.15;;;;;;;15.42;100.00;95545.81;10349428;28;20653;-72
2022/09/15 11:59:46;;;;;;;10.55;5.88;;;;;;;15.63;100.00;95521.66;10349974;28;20260;-72
2022/09/15 12:05:27;;;;;;;9.40;5.30;;;;;;;14.24;100.00;95530.28;10349020;28;20197;-72
2022/09/15 12:10:40;;;;;;;12.13;5.68;;;;;;;14.56;100.00;95538.25;10349667;28;20193;-72
2022/09/15 12:15:42;;;;;;;11.02;6.35;;;;;;;15.20;100.00;95540.09;10349676;28;20694;-73
2022/09/15 12:20:49;;;;;;;7.15;5.63;;;;;;;15.10;100.00;95516.81;10367103;28;20248;-72
2022/09/15 12:26:13;;;;;;;9.77;4.82;;;;;;;15.77;100.00;95497.78;10349509;28;20190;-73
2022/09/15 12:31:27;;;;;;;10.95;5.13;;;;;;;15.51;95.43;95470.59;10358375;28;20205;-73
2022/09/15 12:36:37;;;;;;;8.48;4.82;;;;;;;15.70;96.01;95479.38;10366486;28;20696;-73
2022/09/15 12:42:04;;;;;;;9.65;4.97;;;;;;;15.54;100.00;95496.56;10354385;28;20329;-73
2022/09/15 12:47:20;;;;;;;9.30;4.15;;;;;;;16.27;97.18;95486.28;10357060;28;20239;-72
2022/09/15 12:52:23;;;;;;;12.85;4.45;;;;;;;15.62;99.25;95503.41;10356289;28;20189;-72
2022/09/15 12:57:33;;;;;;;12.27;4.22;;;;;;;16.52;95.62;95480.84;10373638;28;20196;-72
2022/09/15 13:02:44;;;;;;;8.32;3.25;;;;;;;16.69;93.01;95475.72;10372860;28;20697;-73
2022/09/15 13:07:53;;;;;;;8.90;3.58;;;;;;;16.67;93.96;95475.97;10372537;28;20276;-73
2022/09/15 13:13:16;;;;;;;7.57;3.67;;;;;;;15.28;100.00;95506.34;10355508;28;20193;-72
2022/09/15 13:18:17;;;;;;;8.55;3.90;;;;;;;16.94;93.70;95468.47;10355564;28;20283;-73
2022/09/15 13:23:22;;;;;;;7.25;4.28;;;;;;;16.21;96.11;95499.34;10355027;28;20197;-72
2022/09/15 13:28:24;;;;;;;11.05;4.15;;;;;;;15.96;95.93;95496.78;10372233;28;20192;-73
2022/09/15 13:33:44;;;;;;;11.98;4.50;;;;;;;16.70;88.89;95438.50;10371665;28;20185;-72
2022/09/15 13:38:51;;;;;;;15.43;4.70;;;;;;;15.72;94.00;95484.44;10372277;28;20716;-72
2022/09/15 13:44:13;;;;;;;6.55;3.47;;;;;;;16.73;93.40;95472.41;10371623;28;20638;-73
2022/09/15 13:49:43;;;;;;;9.57;3.75;;;;;;;16.34;95.46;95485.16;10371881;28;20220;-72
2022/09/15 13:55:16;;;;;;;8.77;4.05;;;;;;;15.72;99.63;95505.56;10353909;28;20559;-73
2022/09/15 14:00:31;;;;;;;5.32;2.78;;;;;;;16.09;97.08;95481.81;10371468;28;20685;-73
2022/09/15 14:05:33;;;;;;;5.53;2.40;;;;;;;16.43;94.36;95479.56;10353520;28;20205;-73
2022/09/15 14:10:58;;;;;;;2.15;1.67;;;;;;;16.64;87.83;95442.03;10353635;28;20177;-73
2022/09/15 14:16:04;;;;;;;2.95;1.63;;;;;;;16.75;86.23;95448.38;10369984;28;20308;-73
2022/09/15 14:21:05;;;;;;;4.53;1.55;;;;;;;16.36;87.84;95467.22;10370701;28;20569;-73
2022/09/15 14:26:10;;;;;;;2.88;1.70;;;;;;;15.54;91.98;95503.69;10369995;28;20275;-73
2022/09/15 14:31:10;;;;;;;4.05;1.95;;;;;;;15.47;91.56;95494.00;10352719;28;20185;-73
2022/09/15 14:36:12;;;;;;;3.38;1.60;;;;;;;15.39;92.25;95514.56;10369892;28;20213;-72
2022/09/15 14:41:17;;;;;;;4.13;2.30;;;;;;;15.15;93.32;95511.72;10369748;28;20292;-73
2022/09/15 14:46:19;;;;;;;6.00;1.95;;;;;;;15.17;95.23;95522.88;10351380;28;20213;-72
2022/09/15 14:51:23;;;;;;;4.55;2.35;;;;;;;14.79;96.82;95513.19;10328366;28;20186;-73
2022/09/15 14:56:26;;;;;;;5.20;1.98;;;;;;;15.40;99.21;95532.03;10327885;28;20724;-72
2022/09/15 15:01:36;;;;;;;5.38;2.20;;;;;;;15.69;97.66;95514.72;10327389;28;20706;-73
2022/09/15 15:06:40;;;;;;;6.07;2.63;;;;;;;15.22;95.96;95506.38;10328663;28;20198;-73
2022/09/15 15:11:41;;;;;;;4.20;2.80;;;;;;;15.82;92.81;95492.69;10310336;28;20187;-73
2022/09/15 15:16:56;;;;;;;5.13;3.10;;;;;;;15.93;90.64;95483.22;10326581;28;20198;-73
2022/09/15 15:22:14;;;;;;;6.70;2.40;;;;;;;15.68;93.09;95497.25;10327465;28;20217;-73
2022/09/15 15:27:33;;;;;;;9.00;2.85;;;;;;;15.57;94.12;95511.97;10328117;28;20217;-73
2022/09/15 15:32:34;;;;;;;4.97;1.75;;;;;;;15.65;91.60;95487.94;10326870;28;20224;-73
2022/09/15 15:37:34;;;;;;;8.55;2.35;;;;;;;14.97;96.51;95508.00;10327188;28;20308;-73
2022/09/15 15:42:34;;;;;;;4.68;2.13;;;;;;;15.21;92.70;95481.84;10326991;28;20222;-73
2022/09/15 15:47:35;;;;;;;3.75;2.10;;;;;;;15.39;94.84;95489.00;10326206;28;20190;-73
2022/09/15 15:52:36;;;;;;;5.20;2.38;;;;;;;14.46;95.92;95487.81;10326676;28;20190;-73
2022/09/15 15:57:37;;;;;;;5.07;2.20;;;;;;;14.94;98.19;95508.41;10326990;28;20194;-73
2022/09/15 16:02:37;;;;;;;6.03;2.45;;;;;;;14.50;95.65;95498.72;10326116;28;20248;-73
2022/09/15 16:07:38;;;;;;;6.68;2.03;;;;;;;14.33;97.86;95511.59;10327472;28;20202;-73
2022/09/15 16:12:39;;;;;;;6.82;3.20;;;;;;;14.28;100.00;95528.00;10326099;28;20190;-73
2022/09/15 16:17:39;;;;;;;7.03;3.10;;;;;;;14.57;100.00;95518.75;10335231;28;20594;-73
2022/09/15 16:22:39;;;;;;;6.68;2.90;;;;;;;14.26;100.00;95528.22;10334115;28;20245;-73
2022/09/15 16:27:40;;;;;;;7.90;2.85;;;;;;;14.13;100.00;95536.16;10334348;28;20336;-73
2022/09/15 16:32:40;;;;;;;4.47;2.85;;;;;;;14.39;100.00;95547.63;10333871;28;20194;-73
2022/09/15 16:37:40;;;;;;;6.78;3.28;;;;;;;14.35;100.00;95544.63;10360183;28;20221;-72
2022/09/15 16:42:41;;;;;;;7.00;3.10;;;;;;;14.41;100.00;95535.88;10374006;28;20279;-72
2022/09/15 16:47:41;;;;;;;5.47;2.97;;;;;;;14.42;100.00;95526.13;10374230;28;20284;-73
2022/09/15 16:52:42;;;;;;;8.45;3.15;;;;;;;13.96;100.00;95540.28;10373923;28;20185;-73
2022/09/15 16:57:42;;;;;;;7.93;3.22;;;;;;;13.78;100.00;95552.25;10373695;28;20200;-72
2022/09/15 17:02:42;;;;;;;7.70;2.90;;;;;;;13.60;100.00;95549.44;10373077;28;20315;-73
2022/09/15 17:07:43;;;;;;;6.55;3.00;;;;;;;13.31;100.00;95554.91;10373904;28;20201;-73
2022/09/15 17:12:43;;;;;;;6.05;3.10;;;;;;;13.51;100.00;95544.41;10372381;28;20189;-73
2022/09/15 17:17:43;;;;;;;3.47;3.17;;;;;;;13.65;100.00;95547.81;10373284;28;20189;-72
2022/09/15 17:22:45;;;;;;;4.50;3.05;;;;;;;13.44;100.00;95564.63;10371900;28;20697;-73
2022/09/15 17:27:46;;;;;;;7.68;2.88;;;;;;;13.61;100.00;95559.75;10372511;28;20189;-73
2022/09/15 17:32:48;;;;;;;6.22;2.83;;;;;;;13.14;100.00;95569.44;10371637;28;20216;-73
2022/09/15 17:37:49;;;;;;;9.07;6.35;;;;;;;13.40;100.00;95560.81;10372023;28;20213;-73
2022/09/15 17:42:49;;;;;;;8.05;3.80;;;;;;;13.12;100.00;95558.31;10371953;28;20225;-73
2022/09/15 17:47:50;;;;;;;5.90;2.92;;;;;;;13.02;100.00;95577.13;10371750;28;20220;-73
2022/09/15 17:52:50;;;;;;;5.88;2.75;;;;;;;12.71;100.00;95586.38;10371436;28;20280;-73
2022/09/15 17:57:51;;;;;;;7.97;3.25;;;;;;;12.47;100.00;95595.56;10371406;28;20228;-73
2022/09/15 18:02:53;;;;;;;4.97;2.70;;;;;;;12.65;100.00;95595.84;10370728;28;20217;-73
2022/09/15 18:07:55;;;;;;;7.22;2.85;;;;;;;12.32;100.00;95606.19;10371261;28;20220;-73
2022/09/15 18:12:56;;;;;;;5.45;2.70;;;;;;;12.17;100.00;95597.63;10370295;28;20200;-73
2022/09/15 18:18:01;;;;;;;8.35;2.97;;;;;;;11.97;100.00;95603.56;10371140;28;20190;-73
2022/09/15 18:23:02;;;;;;;4.00;2.20;;;;;;;11.91;100.00;95607.78;10369824;28;20216;-73
2022/09/15 18:28:03;;;;;;;5.68;2.63;;;;;;;11.74;100.00;95620.34;10370497;28;20206;-73
2022/09/15 18:33:03;;;;;;;5.60;2.53;;;;;;;11.60;100.00;95618.63;10369375;28;20251;-73
2022/09/15 18:38:03;;;;;;;3.35;2.50;;;;;;;11.43;100.00;95624.13;10368902;28;20303;-72
2022/09/15 18:43:11;;;;;;;6.15;2.58;;;;;;;11.14;100.00;95621.66;10369444;28;20200;-73
2022/09/15 18:48:12;;;;;;;7.68;3.08;;;;;;;11.17;100.00;95634.41;10310703;28;20213;-72
2022/09/15 18:53:13;;;;;;;5.72;2.72;;;;;;;11.07;100.00;95634.69;10328942;28;20186;-72
2022/09/15 18:58:13;;;;;;;5.88;2.90;;;;;;;10.90;100.00;95641.97;10328508;28;20251;-72
2022/09/15 19:03:13;;;;;;;4.82;3.53;;;;;;;11.00;100.00;95637.25;10328034;28;20202;-72
2022/09/15 19:08:14;;;;;;;2.63;2.05;;;;;;;11.01;100.00;95640.66;10328496;28;20186;-72
2022/09/15 19:13:15;;;;;;;5.03;2.42;;;;;;;11.15;100.00;95637.22;10327255;28;20198;-71
2022/09/15 19:18:15;;;;;;;2.35;2.03;;;;;;;11.13;100.00;95641.00;10328020;28;20198;-73
2022/09/15 19:23:15;;;;;;;9.15;2.53;;;;;;;11.10;100.00;95638.75;10327337;28;20544;-73
2022/09/15 19:28:16;;;;;;;8.80;3.03;;;;;;;11.07;100.00;95642.56;10327622;28;20197;-74
2022/09/15 19:33:16;;;;;;;3.08;1.88;;;;;;;11.02;100.00;95642.31;10327076;28;20636;-73
2022/09/15 19:38:17;;;;;;;6.22;1.85;;;;;;;11.19;100.00;95632.41;10326936;28;20590;-73
2022/09/15 19:43:17;;;;;;;3.35;1.90;;;;;;;11.13;100.00;95635.75;10327123;28;20194;-74
2022/09/15 19:48:17;;;;;;;4.30;1.92;;;;;;;11.19;100.00;95642.88;10327229;28;20606;-73
2022/09/15 19:53:18;;;;;;;3.70;2.15;;;;;;;11.20;100.00;95649.75;10326627;28;20534;-73
2022/09/15 19:58:19;;;;;;;3.08;1.60;;;;;;;11.28;100.00;95649.63;10310050;28;20650;-72
2022/09/15 20:03:20;;;;;;;2.70;1.80;;;;;;;11.40;100.00;95642.88;10322484;28;20201;-73
2022/09/15 20:08:21;;;;;;;4.55;1.65;;;;;;;11.37;100.00;95645.88;10327110;28;20603;-73
2022/09/15 20:13:21;;;;;;;7.35;1.83;;;;;;;11.27;100.00;95653.25;10308694;28;20248;-73
2022/09/15 20:18:22;;;;;;;6.18;1.90;;;;;;;11.30;100.00;95647.66;10326669;28;20730;-72
2022/09/15 20:23:22;;;;;;;8.13;1.52;;;;;;;11.26;100.00;95650.81;10325269;28;20524;-73
2022/09/15 20:28:23;;;;;;;6.05;1.67;;;;;;;11.30;100.00;95642.41;10309189;28;20655;-73
2022/09/15 20:33:25;;;;;;;5.45;2.03;;;;;;;11.33;100.00;95655.13;10325560;28;20201;-73
2022/09/15 20:38:25;;;;;;;5.80;1.70;;;;;;;11.28;100.00;95654.88;10325266;28;20245;-73
2022/09/15 20:43:26;;;;;;;5.57;2.17;;;;;;;11.32;100.00;95653.50;10326152;28;20202;-73
2022/09/15 20:48:29;;;;;;;2.95;1.80;;;;;;;11.41;100.00;95652.38;10293256;28;20677;-73
2022/09/15 20:53:29;;;;;;;4.72;1.65;;;;;;;11.33;100.00;95664.78;10326014;28;20252;-73
2022/09/15 20:58:34;;;;;;;4.30;1.60;;;;;;;11.49;100.00;95661.13;10326993;28;20300;-73
2022/09/15 21:03:36;;;;;;;8.32;1.60;;;;;;;11.44;100.00;95666.94;10332583;28;20194;-73
2022/09/15 21:08:36;;;;;;;3.72;1.65;;;;;;;11.46;100.00;95659.69;10332976;28;20228;-73
2022/09/15 21:13:38;;;;;;;5.88;1.60;;;;;;;11.35;100.00;95673.31;10332398;28;20202;-73
2022/09/15 21:18:40;;;;;;;8.00;1.98;;;;;;;11.41;100.00;95668.09;10332376;28;20686;-73
2022/09/15 21:23:42;;;;;;;7.43;1.60;;;;;;;11.49;100.00;95687.34;10331299;28;20218;-72
2022/09/15 21:28:42;;;;;;;2.40;1.55;;;;;;;11.40;100.00;95690.06;10331902;28;20644;-73
2022/09/15 21:33:43;;;;;;;2.85;1.45;;;;;;;11.38;100.00;95688.66;10314274;28;20196;-73
2022/09/15 21:38:44;;;;;;;6.25;2.00;;;;;;;11.47;100.00;95698.03;10332084;28;20233;-72
2022/09/15 21:43:45;;;;;;;3.08;1.77;;;;;;;11.31;100.00;95688.56;10331364;28;20546;-73
2022/09/15 21:48:46;;;;;;;6.63;1.67;;;;;;;11.34;100.00;95695.28;10331567;28;20662;-73
2022/09/15 21:53:50;;;;;;;2.45;1.50;;;;;;;11.35;100.00;95695.09;10330685;28;20218;-73
2022/09/15 21:58:50;;;;;;;3.95;1.65;;;;;;;11.28;100.00;95703.88;10331013;28;20381;-73
2022/09/15 22:03:55;;;;;;;5.50;1.48;;;;;;;11.31;100.00;95699.06;10329148;28;20325;-73
2022/09/15 22:08:57;;;;;;;4.53;1.20;;;;;;;11.30;100.00;95701.88;10313311;28;20186;-72
2022/09/15 22:13:57;;;;;;;2.17;1.20;;;;;;;11.34;100.00;95703.13;10329153;28;20237;-73
2022/09/15 22:18:58;;;;;;;3.15;1.30;;;;;;;11.40;100.00;95697.13;10330002;28;20700;-73
2022/09/15 22:23:58;;;;;;;5.00;1.30;;;;;;;11.34;100.00;95703.94;10329827;28;20193;-73
2022/09/15 22:28:59;;;;;;;10.15;1.25;;;;;;;11.46;100.00;95701.63;10329561;28;20680;-72
2022/09/15 22:34:00;;;;;;;2.58;1.00;;;;;;;11.42;100.00;95697.75;10329007;28;20201;-73
2022/09/15 22:39:04;;;;;;;6.55;1.40;;;;;;;11.35;100.00;95702.94;10329262;28;20705;-72
2022/09/15 22:44:06;;;;;;;4.55;1.45;;;;;;;11.41;100.00;95707.44;10310967;28;20699;-73
2022/09/15 22:49:06;;;;;;;3.28;1.10;;;;;;;11.45;100.00;95707.06;10329307;28;20197;-73
2022/09/15 22:54:07;;;;;;;6.45;1.42;;;;;;;11.35;100.00;95713.44;10328044;28;20198;-72
2022/09/15 22:59:07;;;;;;;2.45;1.13;;;;;;;11.49;100.00;95709.13;10328614;28;20234;-73
2022/09/15 23:04:08;;;;;;;4.90;1.30;;;;;;;11.43;100.00;95718.56;10327990;28;20193;-73
2022/09/15 23:09:09;;;;;;;4.82;1.25;;;;;;;11.37;100.00;95715.88;10328477;28;20606;-73
2022/09/15 23:14:14;;;;;;;5.53;1.30;;;;;;;11.29;100.00;95719.41;10327764;28;20640;-73